sensor_id;sensor_type;location;lat;lon;timestamp;P1;durP1;ratioP1;P2;durP2;ratioP2
9643;SDS011;4860;50.900;4.720;2023-04-24T00:00:22;0.20;;;0.20;;
9643;SDS011;4860;50.900;4.720;2023-04-24T00:02:48;0.13;;;0.13;;
9643;SDS011;4860;50.900;4.720;2023-04-24T00:05:15;0.20;;;0.20;;
9643;SDS011;4860;50.900;4.720;2023-04-24T00:07:42;0.20;;;0.20;;
9643;SDS011;4860;50.900;4.720;2023-04-24T00:10:09;0.20;;;0.20;;
9643;SDS011;4860;50.900;4.720;2023-04-24T00:12:36;0.20;;;0.20;;
9643;SDS011;4860;50.900;4.720;2023-04-24T00:15:02;0.20;;;0.20;;
9643;SDS011;4860;50.900;4.720;2023-04-24T00:17:29;0.17;;;0.17;;
9643;SDS011;4860;50.900;4.720;2023-04-24T00:19:55;0.20;;;0.20;;
9643;SDS011;4860;50.900;4.720;2023-04-24T00:22:27;0.20;;;0.20;;
9643;SDS011;4860;50.900;4.720;2023-04-24T00:24:53;0.10;;;0.10;;
9643;SDS011;4860;50.900;4.720;2023-04-24T00:27:20;0.30;;;0.30;;
9643;SDS011;4860;50.900;4.720;2023-04-24T00:29:46;0.20;;;0.20;;
9643;SDS011;4860;50.900;4.720;2023-04-24T00:32:12;0.20;;;0.20;;
9643;SDS011;4860;50.900;4.720;2023-04-24T00:34:39;0.20;;;0.20;;
9643;SDS011;4860;50.900;4.720;2023-04-24T00:37:05;0.20;;;0.20;;
9643;SDS011;4860;50.900;4.720;2023-04-24T00:39:31;0.20;;;0.20;;
9643;SDS011;4860;50.900;4.720;2023-04-24T00:41:58;0.20;;;0.20;;
9643;SDS011;4860;50.900;4.720;2023-04-24T00:44:24;0.20;;;0.20;;
9643;SDS011;4860;50.900;4.720;2023-04-24T00:46:51;0.20;;;0.20;;
9643;SDS011;4860;50.900;4.720;2023-04-24T00:49:22;0.20;;;0.20;;
9643;SDS011;4860;50.900;4.720;2023-04-24T00:51:48;0.20;;;0.20;;
9643;SDS011;4860;50.900;4.720;2023-04-24T00:54:16;0.20;;;0.20;;
9643;SDS011;4860;50.900;4.720;2023-04-24T00:56:43;0.20;;;0.20;;
9643;SDS011;4860;50.900;4.720;2023-04-24T00:59:09;0.20;;;0.20;;
9643;SDS011;4860;50.900;4.720;2023-04-24T01:01:36;0.20;;;0.20;;
9643;SDS011;4860;50.900;4.720;2023-04-24T01:04:02;0.20;;;0.20;;
9643;SDS011;4860;50.900;4.720;2023-04-24T01:06:29;0.20;;;0.20;;
9643;SDS011;4860;50.900;4.720;2023-04-24T01:08:56;0.20;;;0.20;;
9643;SDS011;4860;50.900;4.720;2023-04-24T01:11:23;0.20;;;0.20;;
9643;SDS011;4860;50.900;4.720;2023-04-24T01:13:49;0.22;;;0.22;;
9643;SDS011;4860;50.900;4.720;2023-04-24T01:16:15;0.20;;;0.20;;
9643;SDS011;4860;50.900;4.720;2023-04-24T01:18:43;0.20;;;0.20;;
9643;SDS011;4860;50.900;4.720;2023-04-24T01:21:09;0.30;;;0.30;;
9643;SDS011;4860;50.900;4.720;2023-04-24T01:23:36;0.20;;;0.20;;
9643;SDS011;4860;50.900;4.720;2023-04-24T01:26:03;0.20;;;0.20;;
9643;SDS011;4860;50.900;4.720;2023-04-24T01:28:29;0.20;;;0.20;;
9643;SDS011;4860;50.900;4.720;2023-04-24T01:30:55;0.22;;;0.22;;
9643;SDS011;4860;50.900;4.720;2023-04-24T01:33:21;0.20;;;0.20;;
9643;SDS011;4860;50.900;4.720;2023-04-24T01:35:48;0.20;;;0.20;;
9643;SDS011;4860;50.900;4.720;2023-04-24T01:38:15;0.25;;;0.25;;
9643;SDS011;4860;50.900;4.720;2023-04-24T01:40:41;0.20;;;0.20;;
9643;SDS011;4860;50.900;4.720;2023-04-24T01:43:07;0.28;;;0.28;;
9643;SDS011;4860;50.900;4.720;2023-04-24T01:45:34;0.20;;;0.20;;
9643;SDS011;4860;50.900;4.720;2023-04-24T01:48:00;0.20;;;0.20;;
9643;SDS011;4860;50.900;4.720;2023-04-24T01:50:26;0.30;;;0.30;;
9643;SDS011;4860;50.900;4.720;2023-04-24T01:52:53;0.20;;;0.20;;
9643;SDS011;4860;50.900;4.720;2023-04-24T01:55:19;0.30;;;0.30;;
9643;SDS011;4860;50.900;4.720;2023-04-24T01:57:45;0.25;;;0.25;;
9643;SDS011;4860;50.900;4.720;2023-04-24T02:00:12;0.30;;;0.30;;
9643;SDS011;4860;50.900;4.720;2023-04-24T02:02:38;0.30;;;0.30;;
9643;SDS011;4860;50.900;4.720;2023-04-24T02:05:05;0.20;;;0.20;;
9643;SDS011;4860;50.900;4.720;2023-04-24T02:07:32;0.22;;;0.22;;
9643;SDS011;4860;50.900;4.720;2023-04-24T02:09:58;0.30;;;0.30;;
9643;SDS011;4860;50.900;4.720;2023-04-24T02:12:24;0.30;;;0.30;;
9643;SDS011;4860;50.900;4.720;2023-04-24T02:14:51;0.30;;;0.30;;
9643;SDS011;4860;50.900;4.720;2023-04-24T02:17:17;0.30;;;0.30;;
9643;SDS011;4860;50.900;4.720;2023-04-24T02:19:44;0.20;;;0.20;;
9643;SDS011;4860;50.900;4.720;2023-04-24T02:22:11;0.20;;;0.20;;
9643;SDS011;4860;50.900;4.720;2023-04-24T02:24:38;0.30;;;0.30;;
9643;SDS011;4860;50.900;4.720;2023-04-24T02:27:04;0.20;;;0.20;;
9643;SDS011;4860;50.900;4.720;2023-04-24T02:29:30;0.20;;;0.20;;
9643;SDS011;4860;50.900;4.720;2023-04-24T02:31:57;0.20;;;0.20;;
9643;SDS011;4860;50.900;4.720;2023-04-24T02:34:23;0.20;;;0.20;;
9643;SDS011;4860;50.900;4.720;2023-04-24T02:36:49;0.20;;;0.20;;
9643;SDS011;4860;50.900;4.720;2023-04-24T02:39:15;0.20;;;0.20;;
9643;SDS011;4860;50.900;4.720;2023-04-24T02:41:43;0.20;;;0.20;;
9643;SDS011;4860;50.900;4.720;2023-04-24T02:44:09;0.30;;;0.30;;
9643;SDS011;4860;50.900;4.720;2023-04-24T02:46:36;0.25;;;0.25;;
9643;SDS011;4860;50.900;4.720;2023-04-24T02:49:02;0.20;;;0.20;;
9643;SDS011;4860;50.900;4.720;2023-04-24T02:51:28;0.20;;;0.20;;
9643;SDS011;4860;50.900;4.720;2023-04-24T02:53:54;0.20;;;0.20;;
9643;SDS011;4860;50.900;4.720;2023-04-24T02:56:21;0.30;;;0.30;;
9643;SDS011;4860;50.900;4.720;2023-04-24T02:58:47;0.30;;;0.30;;
9643;SDS011;4860;50.900;4.720;2023-04-24T03:01:13;0.30;;;0.30;;
9643;SDS011;4860;50.900;4.720;2023-04-24T03:03:39;0.20;;;0.20;;
9643;SDS011;4860;50.900;4.720;2023-04-24T03:06:05;0.20;;;0.20;;
9643;SDS011;4860;50.900;4.720;2023-04-24T03:08:33;0.20;;;0.20;;
9643;SDS011;4860;50.900;4.720;2023-04-24T03:10:59;0.30;;;0.30;;
9643;SDS011;4860;50.900;4.720;2023-04-24T03:13:25;0.30;;;0.30;;
9643;SDS011;4860;50.900;4.720;2023-04-24T03:15:51;0.30;;;0.30;;
9643;SDS011;4860;50.900;4.720;2023-04-24T03:18:19;0.20;;;0.20;;
9643;SDS011;4860;50.900;4.720;2023-04-24T03:20:45;0.30;;;0.30;;
9643;SDS011;4860;50.900;4.720;2023-04-24T03:23:12;0.30;;;0.30;;
9643;SDS011;4860;50.900;4.720;2023-04-24T03:25:38;0.30;;;0.30;;
9643;SDS011;4860;50.900;4.720;2023-04-24T03:28:05;0.20;;;0.20;;
9643;SDS011;4860;50.900;4.720;2023-04-24T03:30:32;0.22;;;0.22;;
9643;SDS011;4860;50.900;4.720;2023-04-24T03:32:58;0.30;;;0.30;;
9643;SDS011;4860;50.900;4.720;2023-04-24T03:35:24;0.30;;;0.30;;
9643;SDS011;4860;50.900;4.720;2023-04-24T03:37:50;0.30;;;0.30;;
9643;SDS011;4860;50.900;4.720;2023-04-24T03:40:16;0.28;;;0.28;;
9643;SDS011;4860;50.900;4.720;2023-04-24T03:42:43;0.28;;;0.28;;
9643;SDS011;4860;50.900;4.720;2023-04-24T03:45:09;0.30;;;0.30;;
9643;SDS011;4860;50.900;4.720;2023-04-24T03:47:35;0.30;;;0.30;;
9643;SDS011;4860;50.900;4.720;2023-04-24T03:50:02;0.30;;;0.30;;
9643;SDS011;4860;50.900;4.720;2023-04-24T03:52:28;0.30;;;0.30;;
9643;SDS011;4860;50.900;4.720;2023-04-24T03:54:54;0.30;;;0.30;;
9643;SDS011;4860;50.900;4.720;2023-04-24T03:57:20;0.30;;;0.30;;
9643;SDS011;4860;50.900;4.720;2023-04-24T03:59:47;0.20;;;0.20;;
9643;SDS011;4860;50.900;4.720;2023-04-24T04:02:13;0.30;;;0.30;;
9643;SDS011;4860;50.900;4.720;2023-04-24T04:04:39;0.20;;;0.20;;
9643;SDS011;4860;50.900;4.720;2023-04-24T04:07:05;0.30;;;0.30;;
9643;SDS011;4860;50.900;4.720;2023-04-24T04:09:32;0.30;;;0.30;;
9643;SDS011;4860;50.900;4.720;2023-04-24T04:11:59;0.30;;;0.30;;
9643;SDS011;4860;50.900;4.720;2023-04-24T04:14:26;0.20;;;0.20;;
9643;SDS011;4860;50.900;4.720;2023-04-24T04:16:52;0.30;;;0.30;;
9643;SDS011;4860;50.900;4.720;2023-04-24T04:19:18;0.20;;;0.20;;
9643;SDS011;4860;50.900;4.720;2023-04-24T04:21:44;0.30;;;0.30;;
9643;SDS011;4860;50.900;4.720;2023-04-24T04:24:11;0.30;;;0.30;;
9643;SDS011;4860;50.900;4.720;2023-04-24T04:26:38;0.20;;;0.20;;
9643;SDS011;4860;50.900;4.720;2023-04-24T04:29:05;0.25;;;0.25;;
9643;SDS011;4860;50.900;4.720;2023-04-24T04:31:31;0.28;;;0.28;;
9643;SDS011;4860;50.900;4.720;2023-04-24T04:33:57;0.30;;;0.30;;
9643;SDS011;4860;50.900;4.720;2023-04-24T04:36:24;0.20;;;0.20;;
9643;SDS011;4860;50.900;4.720;2023-04-24T04:38:51;0.20;;;0.20;;
9643;SDS011;4860;50.900;4.720;2023-04-24T04:41:17;0.25;;;0.25;;
9643;SDS011;4860;50.900;4.720;2023-04-24T04:43:43;0.30;;;0.30;;
9643;SDS011;4860;50.900;4.720;2023-04-24T04:46:09;0.20;;;0.20;;
9643;SDS011;4860;50.900;4.720;2023-04-24T04:48:36;0.20;;;0.20;;
9643;SDS011;4860;50.900;4.720;2023-04-24T04:51:03;0.30;;;0.30;;
9643;SDS011;4860;50.900;4.720;2023-04-24T04:53:29;0.30;;;0.30;;
9643;SDS011;4860;50.900;4.720;2023-04-24T04:55:55;0.22;;;0.22;;
9643;SDS011;4860;50.900;4.720;2023-04-24T04:58:21;0.30;;;0.30;;
9643;SDS011;4860;50.900;4.720;2023-04-24T05:00:48;0.20;;;0.20;;
9643;SDS011;4860;50.900;4.720;2023-04-24T05:03:14;0.30;;;0.30;;
9643;SDS011;4860;50.900;4.720;2023-04-24T05:05:40;0.30;;;0.30;;
9643;SDS011;4860;50.900;4.720;2023-04-24T05:08:07;0.30;;;0.30;;
9643;SDS011;4860;50.900;4.720;2023-04-24T05:10:33;0.10;;;0.10;;
9643;SDS011;4860;50.900;4.720;2023-04-24T05:13:02;0.30;;;0.30;;
9643;SDS011;4860;50.900;4.720;2023-04-24T05:15:29;0.30;;;0.30;;
9643;SDS011;4860;50.900;4.720;2023-04-24T05:17:55;0.20;;;0.20;;
9643;SDS011;4860;50.900;4.720;2023-04-24T05:20:21;0.30;;;0.30;;
9643;SDS011;4860;50.900;4.720;2023-04-24T05:22:48;0.20;;;0.20;;
9643;SDS011;4860;50.900;4.720;2023-04-24T05:25:14;0.30;;;0.30;;
9643;SDS011;4860;50.900;4.720;2023-04-24T05:27:40;0.30;;;0.30;;
9643;SDS011;4860;50.900;4.720;2023-04-24T05:30:06;0.20;;;0.20;;
9643;SDS011;4860;50.900;4.720;2023-04-24T05:32:33;0.20;;;0.20;;
9643;SDS011;4860;50.900;4.720;2023-04-24T05:35:00;0.20;;;0.20;;
9643;SDS011;4860;50.900;4.720;2023-04-24T05:37:26;0.30;;;0.30;;
9643;SDS011;4860;50.900;4.720;2023-04-24T05:39:52;0.30;;;0.30;;
9643;SDS011;4860;50.900;4.720;2023-04-24T05:42:18;0.30;;;0.30;;
9643;SDS011;4860;50.900;4.720;2023-04-24T05:44:44;0.30;;;0.30;;
9643;SDS011;4860;50.900;4.720;2023-04-24T05:47:11;0.30;;;0.30;;
9643;SDS011;4860;50.900;4.720;2023-04-24T05:49:37;0.20;;;0.20;;
9643;SDS011;4860;50.900;4.720;2023-04-24T05:52:03;0.30;;;0.30;;
9643;SDS011;4860;50.900;4.720;2023-04-24T05:54:31;0.30;;;0.30;;
9643;SDS011;4860;50.900;4.720;2023-04-24T05:56:57;0.20;;;0.20;;
9643;SDS011;4860;50.900;4.720;2023-04-24T05:59:23;0.25;;;0.25;;
9643;SDS011;4860;50.900;4.720;2023-04-24T06:01:50;0.20;;;0.20;;
9643;SDS011;4860;50.900;4.720;2023-04-24T06:04:17;0.30;;;0.30;;
9643;SDS011;4860;50.900;4.720;2023-04-24T06:06:43;0.20;;;0.20;;
9643;SDS011;4860;50.900;4.720;2023-04-24T06:09:09;0.20;;;0.20;;
9643;SDS011;4860;50.900;4.720;2023-04-24T06:11:37;0.20;;;0.20;;
9643;SDS011;4860;50.900;4.720;2023-04-24T06:14:03;0.30;;;0.30;;
9643;SDS011;4860;50.900;4.720;2023-04-24T06:16:29;0.20;;;0.20;;
9643;SDS011;4860;50.900;4.720;2023-04-24T06:18:56;0.20;;;0.20;;
9643;SDS011;4860;50.900;4.720;2023-04-24T06:21:22;0.20;;;0.20;;
9643;SDS011;4860;50.900;4.720;2023-04-24T06:23:48;0.30;;;0.30;;
9643;SDS011;4860;50.900;4.720;2023-04-24T06:26:15;0.20;;;0.20;;
9643;SDS011;4860;50.900;4.720;2023-04-24T06:28:41;0.30;;;0.30;;
9643;SDS011;4860;50.900;4.720;2023-04-24T06:31:07;0.30;;;0.30;;
9643;SDS011;4860;50.900;4.720;2023-04-24T06:33:34;0.30;;;0.30;;
9643;SDS011;4860;50.900;4.720;2023-04-24T06:36:00;0.20;;;0.20;;
9643;SDS011;4860;50.900;4.720;2023-04-24T06:38:26;0.20;;;0.20;;
9643;SDS011;4860;50.900;4.720;2023-04-24T06:40:53;0.20;;;0.20;;
9643;SDS011;4860;50.900;4.720;2023-04-24T06:43:19;0.28;;;0.28;;
9643;SDS011;4860;50.900;4.720;2023-04-24T06:45:45;0.20;;;0.20;;
9643;SDS011;4860;50.900;4.720;2023-04-24T06:48:12;0.28;;;0.28;;
9643;SDS011;4860;50.900;4.720;2023-04-24T06:50:38;0.20;;;0.20;;
9643;SDS011;4860;50.900;4.720;2023-04-24T06:53:04;0.20;;;0.20;;
9643;SDS011;4860;50.900;4.720;2023-04-24T06:55:31;0.30;;;0.30;;
9643;SDS011;4860;50.900;4.720;2023-04-24T06:57:57;0.30;;;0.30;;
9643;SDS011;4860;50.900;4.720;2023-04-24T07:00:23;0.30;;;0.30;;
9643;SDS011;4860;50.900;4.720;2023-04-24T07:02:49;0.30;;;0.30;;
9643;SDS011;4860;50.900;4.720;2023-04-24T07:05:15;0.20;;;0.20;;
9643;SDS011;4860;50.900;4.720;2023-04-24T07:07:45;0.30;;;0.30;;
9643;SDS011;4860;50.900;4.720;2023-04-24T07:10:12;0.30;;;0.30;;
9643;SDS011;4860;50.900;4.720;2023-04-24T07:12:38;0.30;;;0.30;;
9643;SDS011;4860;50.900;4.720;2023-04-24T07:15:05;0.30;;;0.30;;
9643;SDS011;4860;50.900;4.720;2023-04-24T07:17:31;0.30;;;0.30;;
9643;SDS011;4860;50.900;4.720;2023-04-24T07:19:57;0.30;;;0.30;;
9643;SDS011;4860;50.900;4.720;2023-04-24T07:22:23;0.30;;;0.30;;
9643;SDS011;4860;50.900;4.720;2023-04-24T07:24:50;0.20;;;0.20;;
9643;SDS011;4860;50.900;4.720;2023-04-24T07:27:16;0.30;;;0.30;;
9643;SDS011;4860;50.900;4.720;2023-04-24T07:29:42;0.20;;;0.20;;
9643;SDS011;4860;50.900;4.720;2023-04-24T07:32:08;0.30;;;0.30;;
9643;SDS011;4860;50.900;4.720;2023-04-24T07:34:35;0.30;;;0.30;;
9643;SDS011;4860;50.900;4.720;2023-04-24T07:37:01;0.20;;;0.20;;
9643;SDS011;4860;50.900;4.720;2023-04-24T07:39:28;0.30;;;0.30;;
9643;SDS011;4860;50.900;4.720;2023-04-24T07:41:54;0.30;;;0.30;;
9643;SDS011;4860;50.900;4.720;2023-04-24T07:44:20;0.20;;;0.20;;
9643;SDS011;4860;50.900;4.720;2023-04-24T07:46:48;0.20;;;0.20;;
9643;SDS011;4860;50.900;4.720;2023-04-24T07:49:14;0.30;;;0.30;;
9643;SDS011;4860;50.900;4.720;2023-04-24T07:51:40;0.28;;;0.28;;
9643;SDS011;4860;50.900;4.720;2023-04-24T07:54:07;0.30;;;0.30;;
9643;SDS011;4860;50.900;4.720;2023-04-24T07:56:33;0.30;;;0.30;;
9643;SDS011;4860;50.900;4.720;2023-04-24T07:58:59;0.20;;;0.20;;
9643;SDS011;4860;50.900;4.720;2023-04-24T08:01:26;0.30;;;0.30;;
9643;SDS011;4860;50.900;4.720;2023-04-24T08:03:52;0.20;;;0.20;;
9643;SDS011;4860;50.900;4.720;2023-04-24T08:06:18;0.20;;;0.20;;
9643;SDS011;4860;50.900;4.720;2023-04-24T08:08:45;0.20;;;0.20;;
9643;SDS011;4860;50.900;4.720;2023-04-24T08:11:11;0.25;;;0.25;;
9643;SDS011;4860;50.900;4.720;2023-04-24T08:13:37;0.20;;;0.20;;
9643;SDS011;4860;50.900;4.720;2023-04-24T08:16:03;0.20;;;0.20;;
9643;SDS011;4860;50.900;4.720;2023-04-24T08:18:30;0.20;;;0.20;;
9643;SDS011;4860;50.900;4.720;2023-04-24T08:20:56;0.20;;;0.20;;
9643;SDS011;4860;50.900;4.720;2023-04-24T08:23:26;0.20;;;0.20;;
9643;SDS011;4860;50.900;4.720;2023-04-24T08:25:53;0.20;;;0.20;;
9643;SDS011;4860;50.900;4.720;2023-04-24T08:28:20;0.20;;;0.20;;
9643;SDS011;4860;50.900;4.720;2023-04-24T08:30:46;0.20;;;0.20;;
9643;SDS011;4860;50.900;4.720;2023-04-24T08:33:13;0.20;;;0.20;;
9643;SDS011;4860;50.900;4.720;2023-04-24T08:35:40;0.20;;;0.20;;
9643;SDS011;4860;50.900;4.720;2023-04-24T08:38:06;0.20;;;0.20;;
9643;SDS011;4860;50.900;4.720;2023-04-24T08:40:33;0.20;;;0.20;;
9643;SDS011;4860;50.900;4.720;2023-04-24T08:43:00;0.20;;;0.20;;
9643;SDS011;4860;50.900;4.720;2023-04-24T08:45:26;0.20;;;0.20;;
9643;SDS011;4860;50.900;4.720;2023-04-24T08:47:53;0.20;;;0.20;;
9643;SDS011;4860;50.900;4.720;2023-04-24T08:50:20;0.20;;;0.20;;
9643;SDS011;4860;50.900;4.720;2023-04-24T08:52:46;0.20;;;0.20;;
9643;SDS011;4860;50.900;4.720;2023-04-24T08:55:13;0.10;;;0.10;;
9643;SDS011;4860;50.900;4.720;2023-04-24T08:57:40;0.20;;;0.20;;
9643;SDS011;4860;50.900;4.720;2023-04-24T09:00:09;0.10;;;0.10;;
9643;SDS011;4860;50.900;4.720;2023-04-24T09:02:35;0.10;;;0.10;;
9643;SDS011;4860;50.900;4.720;2023-04-24T09:05:01;0.20;;;0.20;;
9643;SDS011;4860;50.900;4.720;2023-04-24T09:07:29;0.20;;;0.20;;
9643;SDS011;4860;50.900;4.720;2023-04-24T09:09:56;0.20;;;0.20;;
9643;SDS011;4860;50.900;4.720;2023-04-24T09:12:22;0.10;;;0.10;;
9643;SDS011;4860;50.900;4.720;2023-04-24T09:14:48;0.20;;;0.20;;
9643;SDS011;4860;50.900;4.720;2023-04-24T09:17:15;0.20;;;0.20;;
9643;SDS011;4860;50.900;4.720;2023-04-24T09:19:41;0.20;;;0.20;;
9643;SDS011;4860;50.900;4.720;2023-04-24T09:22:08;0.10;;;0.10;;
9643;SDS011;4860;50.900;4.720;2023-04-24T09:24:36;0.17;;;0.17;;
9643;SDS011;4860;50.900;4.720;2023-04-24T09:27:02;0.20;;;0.20;;
9643;SDS011;4860;50.900;4.720;2023-04-24T09:29:29;0.20;;;0.20;;
9643;SDS011;4860;50.900;4.720;2023-04-24T09:31:56;0.20;;;0.20;;
9643;SDS011;4860;50.900;4.720;2023-04-24T09:34:23;0.20;;;0.20;;
9643;SDS011;4860;50.900;4.720;2023-04-24T09:36:50;0.20;;;0.20;;
9643;SDS011;4860;50.900;4.720;2023-04-24T09:39:17;0.10;;;0.10;;
9643;SDS011;4860;50.900;4.720;2023-04-24T09:41:49;0.10;;;0.10;;
9643;SDS011;4860;50.900;4.720;2023-04-24T09:46:42;0.10;;;0.10;;
9643;SDS011;4860;50.900;4.720;2023-04-24T09:49:13;0.20;;;0.20;;
9643;SDS011;4860;50.900;4.720;2023-04-24T09:51:40;0.10;;;0.10;;
9643;SDS011;4860;50.900;4.720;2023-04-24T09:54:17;0.20;;;0.20;;
9643;SDS011;4860;50.900;4.720;2023-04-24T09:56:43;0.10;;;0.10;;
9643;SDS011;4860;50.900;4.720;2023-04-24T09:59:17;0.05;;;0.05;;
9643;SDS011;4860;50.900;4.720;2023-04-24T10:01:44;0.10;;;0.10;;
9643;SDS011;4860;50.900;4.720;2023-04-24T10:06:47;0.10;;;0.10;;
9643;SDS011;4860;50.900;4.720;2023-04-24T10:09:17;0.20;;;0.20;;
9643;SDS011;4860;50.900;4.720;2023-04-24T10:11:44;0.10;;;0.10;;
9643;SDS011;4860;50.900;4.720;2023-04-24T10:14:15;0.10;;;0.10;;
9643;SDS011;4860;50.900;4.720;2023-04-24T10:16:43;0.10;;;0.10;;
9643;SDS011;4860;50.900;4.720;2023-04-24T10:19:09;0.10;;;0.10;;
9643;SDS011;4860;50.900;4.720;2023-04-24T10:21:38;0.13;;;0.13;;
9643;SDS011;4860;50.900;4.720;2023-04-24T10:24:10;0.10;;;0.10;;
9643;SDS011;4860;50.900;4.720;2023-04-24T10:26:37;0.10;;;0.10;;
9643;SDS011;4860;50.900;4.720;2023-04-24T10:29:05;0.10;;;0.10;;
9643;SDS011;4860;50.900;4.720;2023-04-24T10:31:36;0.10;;;0.10;;
9643;SDS011;4860;50.900;4.720;2023-04-24T10:34:04;0.10;;;0.10;;
9643;SDS011;4860;50.900;4.720;2023-04-24T10:36:31;0.13;;;0.13;;
9643;SDS011;4860;50.900;4.720;2023-04-24T10:38:59;0.10;;;0.10;;
9643;SDS011;4860;50.900;4.720;2023-04-24T10:41:25;0.10;;;0.10;;
9643;SDS011;4860;50.900;4.720;2023-04-24T10:44:25;0.10;;;0.10;;
9643;SDS011;4860;50.900;4.720;2023-04-24T10:46:49;0.20;;;0.20;;
9643;SDS011;4860;50.900;4.720;2023-04-24T10:49:19;0.10;;;0.10;;
9643;SDS011;4860;50.900;4.720;2023-04-24T10:51:53;0.10;;;0.10;;
9643;SDS011;4860;50.900;4.720;2023-04-24T10:54:23;0.20;;;0.20;;
9643;SDS011;4860;50.900;4.720;2023-04-24T10:56:50;0.10;;;0.10;;
9643;SDS011;4860;50.900;4.720;2023-04-24T10:59:26;0.10;;;0.10;;
9643;SDS011;4860;50.900;4.720;2023-04-24T11:01:53;0.10;;;0.10;;
9643;SDS011;4860;50.900;4.720;2023-04-24T11:04:29;0.10;;;0.10;;
9643;SDS011;4860;50.900;4.720;2023-04-24T11:06:56;0.10;;;0.10;;
9643;SDS011;4860;50.900;4.720;2023-04-24T11:09:22;0.10;;;0.10;;
9643;SDS011;4860;50.900;4.720;2023-04-24T11:11:51;0.00;;;0.00;;
9643;SDS011;4860;50.900;4.720;2023-04-24T11:14:28;0.10;;;0.10;;
9643;SDS011;4860;50.900;4.720;2023-04-24T11:16:54;0.10;;;0.10;;
9643;SDS011;4860;50.900;4.720;2023-04-24T11:19:24;0.10;;;0.10;;
9643;SDS011;4860;50.900;4.720;2023-04-24T11:21:55;0.10;;;0.10;;
9643;SDS011;4860;50.900;4.720;2023-04-24T11:24:32;0.10;;;0.10;;
9643;SDS011;4860;50.900;4.720;2023-04-24T11:32:24;0.10;;;0.10;;
9643;SDS011;4860;50.900;4.720;2023-04-24T11:34:55;0.10;;;0.10;;
9643;SDS011;4860;50.900;4.720;2023-04-24T11:37:22;0.10;;;0.10;;
9643;SDS011;4860;50.900;4.720;2023-04-24T11:39:53;0.10;;;0.10;;
9643;SDS011;4860;50.900;4.720;2023-04-24T11:42:20;0.10;;;0.10;;
9643;SDS011;4860;50.900;4.720;2023-04-24T11:44:47;0.10;;;0.10;;
9643;SDS011;4860;50.900;4.720;2023-04-24T11:47:13;0.10;;;0.10;;
9643;SDS011;4860;50.900;4.720;2023-04-24T11:49:40;0.10;;;0.10;;
9643;SDS011;4860;50.900;4.720;2023-04-24T11:52:06;0.10;;;0.10;;
9643;SDS011;4860;50.900;4.720;2023-04-24T11:54:32;0.15;;;0.15;;
9643;SDS011;4860;50.900;4.720;2023-04-24T11:56:59;0.10;;;0.10;;
9643;SDS011;4860;50.900;4.720;2023-04-24T11:59:25;0.10;;;0.10;;
9643;SDS011;4860;50.900;4.720;2023-04-24T12:01:51;0.10;;;0.10;;
9643;SDS011;4860;50.900;4.720;2023-04-24T12:04:17;0.03;;;0.03;;
9643;SDS011;4860;50.900;4.720;2023-04-24T12:07:02;0.10;;;0.10;;
9643;SDS011;4860;50.900;4.720;2023-04-24T12:10:03;0.10;;;0.10;;
9643;SDS011;4860;50.900;4.720;2023-04-24T12:12:24;0.20;;;0.20;;
9643;SDS011;4860;50.900;4.720;2023-04-24T12:14:54;0.10;;;0.10;;
9643;SDS011;4860;50.900;4.720;2023-04-24T12:19:56;0.10;;;0.10;;
9643;SDS011;4860;50.900;4.720;2023-04-24T12:22:23;0.10;;;0.10;;
9643;SDS011;4860;50.900;4.720;2023-04-24T12:24:59;0.10;;;0.10;;
9643;SDS011;4860;50.900;4.720;2023-04-24T12:27:28;0.10;;;0.10;;
9643;SDS011;4860;50.900;4.720;2023-04-24T12:29:57;0.10;;;0.10;;
9643;SDS011;4860;50.900;4.720;2023-04-24T12:32:24;0.10;;;0.10;;
9643;SDS011;4860;50.900;4.720;2023-04-24T12:34:50;0.10;;;0.10;;
9643;SDS011;4860;50.900;4.720;2023-04-24T12:37:17;0.10;;;0.10;;
9643;SDS011;4860;50.900;4.720;2023-04-24T12:42:26;0.10;;;0.10;;
9643;SDS011;4860;50.900;4.720;2023-04-24T12:44:56;0.10;;;0.10;;
9643;SDS011;4860;50.900;4.720;2023-04-24T12:47:23;0.10;;;0.10;;
9643;SDS011;4860;50.900;4.720;2023-04-24T12:49:50;0.10;;;0.10;;
9643;SDS011;4860;50.900;4.720;2023-04-24T12:52:21;0.10;;;0.10;;
9643;SDS011;4860;50.900;4.720;2023-04-24T12:54:47;0.10;;;0.10;;
9643;SDS011;4860;50.900;4.720;2023-04-24T12:57:13;0.03;;;0.03;;
9643;SDS011;4860;50.900;4.720;2023-04-24T12:59:40;0.10;;;0.10;;
9643;SDS011;4860;50.900;4.720;2023-04-24T13:02:06;0.10;;;0.10;;
9643;SDS011;4860;50.900;4.720;2023-04-24T13:04:34;0.10;;;0.10;;
9643;SDS011;4860;50.900;4.720;2023-04-24T13:07:00;0.10;;;0.10;;
9643;SDS011;4860;50.900;4.720;2023-04-24T13:09:26;0.10;;;0.10;;
9643;SDS011;4860;50.900;4.720;2023-04-24T13:11:52;0.10;;;0.10;;
9643;SDS011;4860;50.900;4.720;2023-04-24T13:14:19;0.10;;;0.10;;
9643;SDS011;4860;50.900;4.720;2023-04-24T13:16:45;0.10;;;0.10;;
9643;SDS011;4860;50.900;4.720;2023-04-24T13:19:11;0.10;;;0.10;;
9643;SDS011;4860;50.900;4.720;2023-04-24T13:21:38;0.10;;;0.10;;
9643;SDS011;4860;50.900;4.720;2023-04-24T13:24:04;0.10;;;0.10;;
9643;SDS011;4860;50.900;4.720;2023-04-24T13:26:33;0.10;;;0.10;;
9643;SDS011;4860;50.900;4.720;2023-04-24T13:28:59;0.03;;;0.03;;
9643;SDS011;4860;50.900;4.720;2023-04-24T13:31:25;0.20;;;0.20;;
9643;SDS011;4860;50.900;4.720;2023-04-24T13:33:52;0.10;;;0.10;;
9643;SDS011;4860;50.900;4.720;2023-04-24T13:36:18;0.10;;;0.10;;
9643;SDS011;4860;50.900;4.720;2023-04-24T13:38:44;0.10;;;0.10;;
9643;SDS011;4860;50.900;4.720;2023-04-24T13:41:10;0.10;;;0.10;;
9643;SDS011;4860;50.900;4.720;2023-04-24T13:43:36;0.10;;;0.10;;
9643;SDS011;4860;50.900;4.720;2023-04-24T13:46:03;0.10;;;0.10;;
9643;SDS011;4860;50.900;4.720;2023-04-24T13:48:29;0.10;;;0.10;;
9643;SDS011;4860;50.900;4.720;2023-04-24T13:50:55;0.10;;;0.10;;
9643;SDS011;4860;50.900;4.720;2023-04-24T13:53:22;0.10;;;0.10;;
9643;SDS011;4860;50.900;4.720;2023-04-24T13:55:48;0.10;;;0.10;;
9643;SDS011;4860;50.900;4.720;2023-04-24T13:58:14;0.10;;;0.10;;
9643;SDS011;4860;50.900;4.720;2023-04-24T14:00:41;0.10;;;0.10;;
9643;SDS011;4860;50.900;4.720;2023-04-24T14:03:07;0.10;;;0.10;;
9643;SDS011;4860;50.900;4.720;2023-04-24T14:05:33;0.10;;;0.10;;
9643;SDS011;4860;50.900;4.720;2023-04-24T14:07:59;0.10;;;0.10;;
9643;SDS011;4860;50.900;4.720;2023-04-24T14:10:25;0.10;;;0.10;;
9643;SDS011;4860;50.900;4.720;2023-04-24T14:12:52;0.10;;;0.10;;
9643;SDS011;4860;50.900;4.720;2023-04-24T14:15:18;0.10;;;0.10;;
9643;SDS011;4860;50.900;4.720;2023-04-24T14:17:44;0.10;;;0.10;;
9643;SDS011;4860;50.900;4.720;2023-04-24T14:20:11;0.10;;;0.10;;
9643;SDS011;4860;50.900;4.720;2023-04-24T14:22:38;0.05;;;0.05;;
9643;SDS011;4860;50.900;4.720;2023-04-24T14:25:04;0.10;;;0.10;;
9643;SDS011;4860;50.900;4.720;2023-04-24T14:27:32;0.10;;;0.10;;
9643;SDS011;4860;50.900;4.720;2023-04-24T14:29:59;0.10;;;0.10;;
9643;SDS011;4860;50.900;4.720;2023-04-24T14:32:25;0.10;;;0.10;;
9643;SDS011;4860;50.900;4.720;2023-04-24T14:34:52;0.10;;;0.10;;
9643;SDS011;4860;50.900;4.720;2023-04-24T14:37:18;0.10;;;0.10;;
9643;SDS011;4860;50.900;4.720;2023-04-24T14:39:45;0.10;;;0.10;;
9643;SDS011;4860;50.900;4.720;2023-04-24T14:42:11;0.10;;;0.10;;
9643;SDS011;4860;50.900;4.720;2023-04-24T14:44:37;0.10;;;0.10;;
9643;SDS011;4860;50.900;4.720;2023-04-24T14:47:04;0.10;;;0.10;;
9643;SDS011;4860;50.900;4.720;2023-04-24T14:49:30;0.10;;;0.10;;
9643;SDS011;4860;50.900;4.720;2023-04-24T14:51:57;0.10;;;0.10;;
9643;SDS011;4860;50.900;4.720;2023-04-24T14:54:23;0.10;;;0.10;;
9643;SDS011;4860;50.900;4.720;2023-04-24T14:56:50;0.10;;;0.10;;
9643;SDS011;4860;50.900;4.720;2023-04-24T14:59:16;0.00;;;0.00;;
9643;SDS011;4860;50.900;4.720;2023-04-24T15:01:42;0.10;;;0.10;;
9643;SDS011;4860;50.900;4.720;2023-04-24T15:04:08;0.10;;;0.10;;
9643;SDS011;4860;50.900;4.720;2023-04-24T15:06:35;0.10;;;0.10;;
9643;SDS011;4860;50.900;4.720;2023-04-24T15:09:01;0.10;;;0.10;;
9643;SDS011;4860;50.900;4.720;2023-04-24T15:11:27;0.20;;;0.20;;
9643;SDS011;4860;50.900;4.720;2023-04-24T15:13:53;0.10;;;0.10;;
9643;SDS011;4860;50.900;4.720;2023-04-24T15:16:19;0.10;;;0.10;;
9643;SDS011;4860;50.900;4.720;2023-04-24T15:18:46;0.10;;;0.10;;
9643;SDS011;4860;50.900;4.720;2023-04-24T15:21:12;0.10;;;0.10;;
9643;SDS011;4860;50.900;4.720;2023-04-24T15:23:38;0.10;;;0.10;;
9643;SDS011;4860;50.900;4.720;2023-04-24T15:26:04;0.10;;;0.10;;
9643;SDS011;4860;50.900;4.720;2023-04-24T15:28:30;0.10;;;0.10;;